sensor_id;sensor_type;location;lat;lon;timestamp;P1;durP1;ratioP1;P2;durP2;ratioP2
33254;SDS011;19623;52.482;9.762;2023-02-28T00:02:22;6.85;;;4.13;;
33254;SDS011;19623;52.482;9.762;2023-02-28T00:04:47;6.40;;;4.00;;
33254;SDS011;19623;52.482;9.762;2023-02-28T00:07:18;7.38;;;3.88;;
33254;SDS011;19623;52.482;9.762;2023-02-28T00:09:44;9.68;;;4.03;;
33254;SDS011;19623;52.482;9.762;2023-02-28T00:12:09;7.35;;;3.67;;
33254;SDS011;19623;52.482;9.762;2023-02-28T00:14:35;9.43;;;3.85;;
33254;SDS011;19623;52.482;9.762;2023-02-28T00:17:01;7.38;;;4.10;;
33254;SDS011;19623;52.482;9.762;2023-02-28T00:19:27;8.55;;;4.05;;
33254;SDS011;19623;52.482;9.762;2023-02-28T00:21:53;7.10;;;3.25;;
33254;SDS011;19623;52.482;9.762;2023-02-28T00:24:18;8.35;;;4.30;;
33254;SDS011;19623;52.482;9.762;2023-02-28T00:26:44;8.07;;;3.83;;
33254;SDS011;19623;52.482;9.762;2023-02-28T00:29:10;9.02;;;3.90;;
33254;SDS011;19623;52.482;9.762;2023-02-28T00:31:35;9.38;;;3.88;;
33254;SDS011;19623;52.482;9.762;2023-02-28T00:34:01;12.57;;;3.92;;
33254;SDS011;19623;52.482;9.762;2023-02-28T00:36:26;6.90;;;3.90;;
33254;SDS011;19623;52.482;9.762;2023-02-28T00:38:52;8.63;;;3.83;;
33254;SDS011;19623;52.482;9.762;2023-02-28T00:41:18;7.30;;;3.85;;
33254;SDS011;19623;52.482;9.762;2023-02-28T00:43:43;9.02;;;3.75;;
33254;SDS011;19623;52.482;9.762;2023-02-28T00:46:09;8.23;;;3.60;;
33254;SDS011;19623;52.482;9.762;2023-02-28T00:48:35;7.88;;;3.67;;
33254;SDS011;19623;52.482;9.762;2023-02-28T00:51:01;7.65;;;3.95;;
33254;SDS011;19623;52.482;9.762;2023-02-28T00:53:27;8.30;;;3.67;;
33254;SDS011;19623;52.482;9.762;2023-02-28T00:55:53;8.57;;;4.00;;
33254;SDS011;19623;52.482;9.762;2023-02-28T00:58:19;11.18;;;3.80;;
33254;SDS011;19623;52.482;9.762;2023-02-28T01:00:44;6.72;;;3.45;;
33254;SDS011;19623;52.482;9.762;2023-02-28T01:03:14;6.15;;;3.25;;
33254;SDS011;19623;52.482;9.762;2023-02-28T01:05:40;6.43;;;3.10;;
33254;SDS011;19623;52.482;9.762;2023-02-28T01:08:06;8.38;;;3.45;;
33254;SDS011;19623;52.482;9.762;2023-02-28T01:10:32;7.60;;;3.38;;
33254;SDS011;19623;52.482;9.762;2023-02-28T01:12:58;7.05;;;3.50;;
33254;SDS011;19623;52.482;9.762;2023-02-28T01:15:24;6.25;;;3.50;;
33254;SDS011;19623;52.482;9.762;2023-02-28T01:17:50;11.75;;;3.53;;
33254;SDS011;19623;52.482;9.762;2023-02-28T01:20:15;10.30;;;4.05;;
33254;SDS011;19623;52.482;9.762;2023-02-28T01:22:41;6.00;;;3.38;;
33254;SDS011;19623;52.482;9.762;2023-02-28T01:25:07;5.07;;;3.25;;
33254;SDS011;19623;52.482;9.762;2023-02-28T01:27:33;6.25;;;3.63;;
33254;SDS011;19623;52.482;9.762;2023-02-28T01:29:58;6.90;;;3.70;;
33254;SDS011;19623;52.482;9.762;2023-02-28T01:32:24;6.50;;;3.65;;
33254;SDS011;19623;52.482;9.762;2023-02-28T01:34:50;9.52;;;3.55;;
33254;SDS011;19623;52.482;9.762;2023-02-28T01:37:15;8.63;;;4.30;;
33254;SDS011;19623;52.482;9.762;2023-02-28T01:39:41;5.18;;;3.40;;
33254;SDS011;19623;52.482;9.762;2023-02-28T01:42:08;7.07;;;3.13;;
33254;SDS011;19623;52.482;9.762;2023-02-28T01:47:52;7.05;;;3.20;;
33254;SDS011;19623;52.482;9.762;2023-02-28T01:50:24;8.30;;;3.70;;
33254;SDS011;19623;52.482;9.762;2023-02-28T01:52:53;8.13;;;3.55;;
33254;SDS011;19623;52.482;9.762;2023-02-28T01:55:22;9.50;;;3.90;;
33254;SDS011;19623;52.482;9.762;2023-02-28T01:57:50;5.70;;;3.35;;
33254;SDS011;19623;52.482;9.762;2023-02-28T02:00:18;6.20;;;3.17;;
33254;SDS011;19623;52.482;9.762;2023-02-28T02:02:48;5.95;;;3.20;;
33254;SDS011;19623;52.482;9.762;2023-02-28T02:05:17;6.63;;;3.72;;
33254;SDS011;19623;52.482;9.762;2023-02-28T02:07:45;6.78;;;3.83;;
33254;SDS011;19623;52.482;9.762;2023-02-28T02:10:18;6.70;;;3.63;;
33254;SDS011;19623;52.482;9.762;2023-02-28T02:13:02;9.20;;;3.97;;
33254;SDS011;19623;52.482;9.762;2023-02-28T02:18:05;7.35;;;3.53;;
33254;SDS011;19623;52.482;9.762;2023-02-28T02:24:33;7.85;;;4.00;;
33254;SDS011;19623;52.482;9.762;2023-02-28T02:29:34;7.40;;;3.70;;
33254;SDS011;19623;52.482;9.762;2023-02-28T02:35:25;6.18;;;3.28;;
33254;SDS011;19623;52.482;9.762;2023-02-28T02:38:03;6.43;;;3.38;;
33254;SDS011;19623;52.482;9.762;2023-02-28T02:40:49;7.43;;;3.80;;
33254;SDS011;19623;52.482;9.762;2023-02-28T02:43:39;5.63;;;3.13;;
33254;SDS011;19623;52.482;9.762;2023-02-28T02:46:17;7.65;;;3.45;;
33254;SDS011;19623;52.482;9.762;2023-02-28T02:48:56;7.75;;;3.67;;
33254;SDS011;19623;52.482;9.762;2023-02-28T02:51:25;6.90;;;3.20;;
33254;SDS011;19623;52.482;9.762;2023-02-28T02:53:58;6.43;;;3.38;;
33254;SDS011;19623;52.482;9.762;2023-02-28T02:56:30;6.28;;;3.65;;
33254;SDS011;19623;52.482;9.762;2023-02-28T02:58:59;8.90;;;3.53;;
33254;SDS011;19623;52.482;9.762;2023-02-28T03:01:28;5.72;;;3.25;;
33254;SDS011;19623;52.482;9.762;2023-02-28T03:03:57;9.10;;;3.80;;
33254;SDS011;19623;52.482;9.762;2023-02-28T03:06:26;5.53;;;3.30;;
33254;SDS011;19623;52.482;9.762;2023-02-28T03:08:52;6.47;;;3.03;;
33254;SDS011;19623;52.482;9.762;2023-02-28T03:11:18;5.28;;;3.40;;
33254;SDS011;19623;52.482;9.762;2023-02-28T03:13:58;6.75;;;3.78;;
33254;SDS011;19623;52.482;9.762;2023-02-28T03:22:06;6.38;;;3.42;;
33254;SDS011;19623;52.482;9.762;2023-02-28T03:30:58;7.32;;;3.78;;
33254;SDS011;19623;52.482;9.762;2023-02-28T03:33:38;6.38;;;3.55;;
33254;SDS011;19623;52.482;9.762;2023-02-28T03:38:44;6.28;;;3.40;;
33254;SDS011;19623;52.482;9.762;2023-02-28T03:41:19;6.05;;;3.92;;
33254;SDS011;19623;52.482;9.762;2023-02-28T03:44:01;7.22;;;3.47;;
33254;SDS011;19623;52.482;9.762;2023-02-28T03:46:31;8.48;;;3.65;;
33254;SDS011;19623;52.482;9.762;2023-02-28T03:49:23;7.65;;;3.58;;
33254;SDS011;19623;52.482;9.762;2023-02-28T03:51:52;7.38;;;3.70;;
33254;SDS011;19623;52.482;9.762;2023-02-28T03:54:55;13.70;;;4.93;;
33254;SDS011;19623;52.482;9.762;2023-02-28T03:57:23;9.23;;;4.10;;
33254;SDS011;19623;52.482;9.762;2023-02-28T04:00:03;9.48;;;4.03;;
33254;SDS011;19623;52.482;9.762;2023-02-28T04:02:33;6.38;;;3.78;;
33254;SDS011;19623;52.482;9.762;2023-02-28T04:04:59;8.25;;;3.80;;
33254;SDS011;19623;52.482;9.762;2023-02-28T04:07:28;6.88;;;3.88;;
33254;SDS011;19623;52.482;9.762;2023-02-28T04:09:54;6.22;;;3.70;;
33254;SDS011;19623;52.482;9.762;2023-02-28T04:12:20;10.15;;;3.95;;
33254;SDS011;19623;52.482;9.762;2023-02-28T04:14:48;6.43;;;3.50;;
33254;SDS011;19623;52.482;9.762;2023-02-28T04:17:14;9.02;;;4.35;;
33254;SDS011;19623;52.482;9.762;2023-02-28T04:19:40;6.70;;;3.80;;
33254;SDS011;19623;52.482;9.762;2023-02-28T04:22:05;7.15;;;3.95;;
33254;SDS011;19623;52.482;9.762;2023-02-28T04:24:31;9.75;;;3.88;;
33254;SDS011;19623;52.482;9.762;2023-02-28T04:26:57;6.63;;;3.75;;
33254;SDS011;19623;52.482;9.762;2023-02-28T04:29:24;6.55;;;3.63;;
33254;SDS011;19623;52.482;9.762;2023-02-28T04:31:52;7.13;;;3.35;;
33254;SDS011;19623;52.482;9.762;2023-02-28T04:34:18;6.30;;;3.38;;
33254;SDS011;19623;52.482;9.762;2023-02-28T04:36:46;7.78;;;3.28;;
33254;SDS011;19623;52.482;9.762;2023-02-28T04:39:14;6.32;;;3.47;;
33254;SDS011;19623;52.482;9.762;2023-02-28T04:41:40;6.57;;;3.45;;
33254;SDS011;19623;52.482;9.762;2023-02-28T04:44:06;9.15;;;4.28;;
33254;SDS011;19623;52.482;9.762;2023-02-28T04:46:31;7.47;;;4.10;;
33254;SDS011;19623;52.482;9.762;2023-02-28T04:48:57;6.40;;;3.38;;
33254;SDS011;19623;52.482;9.762;2023-02-28T04:51:24;8.10;;;3.40;;
33254;SDS011;19623;52.482;9.762;2023-02-28T04:53:49;5.18;;;3.10;;
33254;SDS011;19623;52.482;9.762;2023-02-28T04:56:15;7.07;;;3.45;;
33254;SDS011;19623;52.482;9.762;2023-02-28T04:58:43;8.73;;;4.00;;
33254;SDS011;19623;52.482;9.762;2023-02-28T05:01:17;5.80;;;3.25;;
33254;SDS011;19623;52.482;9.762;2023-02-28T05:03:47;6.93;;;3.10;;
33254;SDS011;19623;52.482;9.762;2023-02-28T05:06:13;7.65;;;3.72;;
33254;SDS011;19623;52.482;9.762;2023-02-28T05:08:40;6.15;;;3.42;;
33254;SDS011;19623;52.482;9.762;2023-02-28T05:11:07;8.48;;;3.42;;
33254;SDS011;19623;52.482;9.762;2023-02-28T05:13:38;7.22;;;3.58;;
33254;SDS011;19623;52.482;9.762;2023-02-28T05:16:04;5.68;;;3.03;;
33254;SDS011;19623;52.482;9.762;2023-02-28T05:18:30;6.32;;;3.10;;
33254;SDS011;19623;52.482;9.762;2023-02-28T05:20:55;9.18;;;3.20;;
33254;SDS011;19623;52.482;9.762;2023-02-28T05:23:21;8.30;;;3.33;;
33254;SDS011;19623;52.482;9.762;2023-02-28T05:25:47;5.82;;;3.60;;
33254;SDS011;19623;52.482;9.762;2023-02-28T05:28:13;9.93;;;3.95;;
33254;SDS011;19623;52.482;9.762;2023-02-28T05:30:39;6.82;;;3.90;;
33254;SDS011;19623;52.482;9.762;2023-02-28T05:33:05;5.43;;;3.33;;
33254;SDS011;19623;52.482;9.762;2023-02-28T05:35:30;8.98;;;3.80;;
33254;SDS011;19623;52.482;9.762;2023-02-28T05:37:56;9.38;;;3.85;;
33254;SDS011;19623;52.482;9.762;2023-02-28T05:40:22;10.40;;;3.95;;
33254;SDS011;19623;52.482;9.762;2023-02-28T05:42:49;9.65;;;3.30;;
33254;SDS011;19623;52.482;9.762;2023-02-28T05:45:15;8.13;;;3.50;;
33254;SDS011;19623;52.482;9.762;2023-02-28T05:47:42;5.93;;;3.50;;
33254;SDS011;19623;52.482;9.762;2023-02-28T05:50:07;5.78;;;3.08;;
33254;SDS011;19623;52.482;9.762;2023-02-28T05:52:35;6.03;;;3.20;;
33254;SDS011;19623;52.482;9.762;2023-02-28T05:55:01;9.63;;;3.05;;
33254;SDS011;19623;52.482;9.762;2023-02-28T05:57:27;7.78;;;3.58;;
33254;SDS011;19623;52.482;9.762;2023-02-28T05:59:52;8.80;;;3.78;;
33254;SDS011;19623;52.482;9.762;2023-02-28T06:02:18;4.28;;;2.92;;
33254;SDS011;19623;52.482;9.762;2023-02-28T06:04:44;6.82;;;3.58;;
33254;SDS011;19623;52.482;9.762;2023-02-28T06:07:10;7.32;;;3.03;;
33254;SDS011;19623;52.482;9.762;2023-02-28T06:09:36;6.10;;;3.38;;
33254;SDS011;19623;52.482;9.762;2023-02-28T06:12:03;6.40;;;3.25;;
33254;SDS011;19623;52.482;9.762;2023-02-28T06:14:30;5.15;;;3.30;;
33254;SDS011;19623;52.482;9.762;2023-02-28T06:16:57;6.63;;;3.63;;
33254;SDS011;19623;52.482;9.762;2023-02-28T06:19:23;4.38;;;2.70;;
33254;SDS011;19623;52.482;9.762;2023-02-28T06:21:52;5.32;;;3.30;;
33254;SDS011;19623;52.482;9.762;2023-02-28T06:24:20;7.30;;;3.60;;
33254;SDS011;19623;52.482;9.762;2023-02-28T06:26:46;5.13;;;3.03;;
33254;SDS011;19623;52.482;9.762;2023-02-28T06:29:12;5.28;;;3.13;;
33254;SDS011;19623;52.482;9.762;2023-02-28T06:31:43;6.97;;;3.67;;
33254;SDS011;19623;52.482;9.762;2023-02-28T06:34:10;7.25;;;3.90;;
33254;SDS011;19623;52.482;9.762;2023-02-28T06:36:37;5.93;;;3.10;;
33254;SDS011;19623;52.482;9.762;2023-02-28T06:39:03;6.65;;;3.92;;
33254;SDS011;19623;52.482;9.762;2023-02-28T06:41:29;7.68;;;3.28;;
33254;SDS011;19623;52.482;9.762;2023-02-28T06:43:55;6.85;;;3.95;;
33254;SDS011;19623;52.482;9.762;2023-02-28T06:46:21;7.72;;;3.67;;
33254;SDS011;19623;52.482;9.762;2023-02-28T06:48:46;9.75;;;3.72;;
33254;SDS011;19623;52.482;9.762;2023-02-28T06:51:14;6.00;;;3.42;;
33254;SDS011;19623;52.482;9.762;2023-02-28T06:53:41;7.38;;;3.83;;
33254;SDS011;19623;52.482;9.762;2023-02-28T06:56:08;7.28;;;4.13;;
33254;SDS011;19623;52.482;9.762;2023-02-28T06:58:36;6.30;;;3.85;;
33254;SDS011;19623;52.482;9.762;2023-02-28T07:01:03;10.45;;;4.22;;
33254;SDS011;19623;52.482;9.762;2023-02-28T07:03:29;9.52;;;4.07;;
33254;SDS011;19623;52.482;9.762;2023-02-28T07:05:55;7.53;;;4.30;;
33254;SDS011;19623;52.482;9.762;2023-02-28T07:08:24;10.88;;;4.03;;
33254;SDS011;19623;52.482;9.762;2023-02-28T07:10:53;6.78;;;4.10;;
33254;SDS011;19623;52.482;9.762;2023-02-28T07:13:20;8.40;;;4.25;;
33254;SDS011;19623;52.482;9.762;2023-02-28T07:16:00;8.95;;;4.20;;
33254;SDS011;19623;52.482;9.762;2023-02-28T07:18:27;9.13;;;4.05;;
33254;SDS011;19623;52.482;9.762;2023-02-28T07:20:53;11.82;;;4.50;;
33254;SDS011;19623;52.482;9.762;2023-02-28T07:23:19;6.47;;;4.32;;
33254;SDS011;19623;52.482;9.762;2023-02-28T07:25:46;9.65;;;4.70;;
33254;SDS011;19623;52.482;9.762;2023-02-28T07:28:12;12.48;;;4.53;;
33254;SDS011;19623;52.482;9.762;2023-02-28T07:30:38;8.02;;;4.57;;
33254;SDS011;19623;52.482;9.762;2023-02-28T07:33:05;8.13;;;4.75;;
33254;SDS011;19623;52.482;9.762;2023-02-28T07:35:30;10.02;;;5.00;;
33254;SDS011;19623;52.482;9.762;2023-02-28T07:37:59;9.02;;;5.00;;
33254;SDS011;19623;52.482;9.762;2023-02-28T07:40:26;8.80;;;4.75;;
33254;SDS011;19623;52.482;9.762;2023-02-28T07:42:52;12.27;;;4.93;;
33254;SDS011;19623;52.482;9.762;2023-02-28T07:45:18;11.98;;;5.68;;
33254;SDS011;19623;52.482;9.762;2023-02-28T07:47:44;8.77;;;5.22;;
33254;SDS011;19623;52.482;9.762;2023-02-28T07:50:11;12.55;;;5.43;;
33254;SDS011;19623;52.482;9.762;2023-02-28T07:52:39;9.38;;;5.10;;
33254;SDS011;19623;52.482;9.762;2023-02-28T07:55:06;12.32;;;5.25;;
33254;SDS011;19623;52.482;9.762;2023-02-28T07:57:33;12.23;;;5.43;;
33254;SDS011;19623;52.482;9.762;2023-02-28T07:59:59;11.52;;;6.00;;
33254;SDS011;19623;52.482;9.762;2023-02-28T08:02:24;10.85;;;5.82;;
33254;SDS011;19623;52.482;9.762;2023-02-28T08:04:50;9.15;;;5.13;;
33254;SDS011;19623;52.482;9.762;2023-02-28T08:07:16;13.82;;;5.28;;
33254;SDS011;19623;52.482;9.762;2023-02-28T08:09:44;10.52;;;5.85;;
33254;SDS011;19623;52.482;9.762;2023-02-28T08:12:10;8.85;;;4.97;;
33254;SDS011;19623;52.482;9.762;2023-02-28T08:14:36;12.07;;;5.18;;
33254;SDS011;19623;52.482;9.762;2023-02-28T08:17:06;13.93;;;6.05;;
33254;SDS011;19623;52.482;9.762;2023-02-28T08:19:31;10.07;;;5.00;;
33254;SDS011;19623;52.482;9.762;2023-02-28T08:21:57;17.35;;;5.30;;
33254;SDS011;19623;52.482;9.762;2023-02-28T08:24:23;11.35;;;5.35;;
33254;SDS011;19623;52.482;9.762;2023-02-28T08:26:49;13.10;;;5.50;;
33254;SDS011;19623;52.482;9.762;2023-02-28T08:29:14;8.57;;;4.72;;
33254;SDS011;19623;52.482;9.762;2023-02-28T08:31:41;9.30;;;5.05;;
33254;SDS011;19623;52.482;9.762;2023-02-28T08:34:12;6.95;;;4.40;;
33254;SDS011;19623;52.482;9.762;2023-02-28T08:36:41;8.07;;;4.13;;
33254;SDS011;19623;52.482;9.762;2023-02-28T08:39:09;8.05;;;4.15;;
33254;SDS011;19623;52.482;9.762;2023-02-28T08:41:36;8.75;;;4.15;;
33254;SDS011;19623;52.482;9.762;2023-02-28T08:44:07;9.25;;;4.25;;
33254;SDS011;19623;52.482;9.762;2023-02-28T08:46:33;8.60;;;4.75;;
33254;SDS011;19623;52.482;9.762;2023-02-28T08:48:59;8.68;;;4.43;;
33254;SDS011;19623;52.482;9.762;2023-02-28T08:51:27;7.72;;;4.50;;
33254;SDS011;19623;52.482;9.762;2023-02-28T08:53:54;9.32;;;4.25;;
33254;SDS011;19623;52.482;9.762;2023-02-28T08:56:20;9.15;;;4.40;;
33254;SDS011;19623;52.482;9.762;2023-02-28T08:58:47;10.70;;;4.75;;
33254;SDS011;19623;52.482;9.762;2023-02-28T09:01:15;7.90;;;4.10;;
33254;SDS011;19623;52.482;9.762;2023-02-28T09:03:43;7.82;;;4.10;;
33254;SDS011;19623;52.482;9.762;2023-02-28T09:06:11;8.43;;;4.38;;
33254;SDS011;19623;52.482;9.762;2023-02-28T09:08:37;7.72;;;3.88;;
33254;SDS011;19623;52.482;9.762;2023-02-28T09:11:03;7.00;;;4.05;;
33254;SDS011;19623;52.482;9.762;2023-02-28T09:13:29;8.32;;;3.78;;
33254;SDS011;19623;52.482;9.762;2023-02-28T09:15:57;8.20;;;3.70;;
33254;SDS011;19623;52.482;9.762;2023-02-28T09:18:24;10.38;;;4.10;;
33254;SDS011;19623;52.482;9.762;2023-02-28T09:20:50;9.27;;;3.58;;
33254;SDS011;19623;52.482;9.762;2023-02-28T09:23:16;6.43;;;3.22;;
33254;SDS011;19623;52.482;9.762;2023-02-28T09:25:48;6.35;;;3.35;;
33254;SDS011;19623;52.482;9.762;2023-02-28T09:28:18;3.63;;;2.60;;
33254;SDS011;19623;52.482;9.762;2023-02-28T09:30:45;4.00;;;2.20;;
33254;SDS011;19623;52.482;9.762;2023-02-28T09:35:42;4.78;;;2.25;;
33254;SDS011;19623;52.482;9.762;2023-02-28T09:38:08;6.05;;;2.13;;
33254;SDS011;19623;52.482;9.762;2023-02-28T09:40:39;3.38;;;2.22;;
33254;SDS011;19623;52.482;9.762;2023-02-28T09:43:11;3.92;;;2.25;;
33254;SDS011;19623;52.482;9.762;2023-02-28T09:45:40;5.32;;;3.03;;
33254;SDS011;19623;52.482;9.762;2023-02-28T09:48:18;6.18;;;2.60;;
33254;SDS011;19623;52.482;9.762;2023-02-28T09:50:49;7.43;;;4.55;;
33254;SDS011;19623;52.482;9.762;2023-02-28T09:53:28;6.63;;;2.50;;
33254;SDS011;19623;52.482;9.762;2023-02-28T09:56:07;3.15;;;2.40;;
33254;SDS011;19623;52.482;9.762;2023-02-28T09:58:51;3.40;;;1.92;;
33254;SDS011;19623;52.482;9.762;2023-02-28T10:04:00;5.10;;;1.92;;
33254;SDS011;19623;52.482;9.762;2023-02-28T10:06:39;2.95;;;1.77;;
33254;SDS011;19623;52.482;9.762;2023-02-28T10:09:19;5.43;;;1.80;;
33254;SDS011;19623;52.482;9.762;2023-02-28T10:11:56;3.95;;;1.70;;
33254;SDS011;19623;52.482;9.762;2023-02-28T10:14:29;4.80;;;1.83;;
33254;SDS011;19623;52.482;9.762;2023-02-28T10:16:59;3.13;;;1.50;;
33254;SDS011;19623;52.482;9.762;2023-02-28T10:19:32;3.33;;;1.63;;
33254;SDS011;19623;52.482;9.762;2023-02-28T10:22:51;5.47;;;1.73;;
33254;SDS011;19623;52.482;9.762;2023-02-28T10:27:54;3.05;;;1.00;;
33254;SDS011;19623;52.482;9.762;2023-02-28T10:30:26;3.05;;;1.40;;
33254;SDS011;19623;52.482;9.762;2023-02-28T10:32:52;1.85;;;0.88;;
33254;SDS011;19623;52.482;9.762;2023-02-28T10:35:20;4.40;;;1.45;;
33254;SDS011;19623;52.482;9.762;2023-02-28T10:37:49;3.53;;;1.45;;
33254;SDS011;19623;52.482;9.762;2023-02-28T10:43:01;1.50;;;1.15;;
33254;SDS011;19623;52.482;9.762;2023-02-28T10:45:29;1.77;;;1.17;;
33254;SDS011;19623;52.482;9.762;2023-02-28T10:48:24;1.75;;;1.38;;
33254;SDS011;19623;52.482;9.762;2023-02-28T10:50:44;2.67;;;1.52;;
33254;SDS011;19623;52.482;9.762;2023-02-28T10:58:31;1.88;;;1.38;;
33254;SDS011;19623;52.482;9.762;2023-02-28T11:01:14;2.42;;;1.33;;
33254;SDS011;19623;52.482;9.762;2023-02-28T11:03:41;2.95;;;1.30;;
33254;SDS011;19623;52.482;9.762;2023-02-28T11:06:08;6.63;;;1.80;;
33254;SDS011;19623;52.482;9.762;2023-02-28T11:08:44;1.73;;;1.13;;
33254;SDS011;19623;52.482;9.762;2023-02-28T11:11:40;3.85;;;1.40;;
33254;SDS011;19623;52.482;9.762;2023-02-28T11:14:21;2.15;;;1.60;;
33254;SDS011;19623;52.482;9.762;2023-02-28T11:16:53;2.45;;;1.27;;
33254;SDS011;19623;52.482;9.762;2023-02-28T11:19:29;3.33;;;1.15;;
33254;SDS011;19623;52.482;9.762;2023-02-28T11:22:03;2.03;;;1.30;;
33254;SDS011;19623;52.482;9.762;2023-02-28T11:24:32;1.73;;;1.20;;
33254;SDS011;19623;52.482;9.762;2023-02-28T11:27:01;2.47;;;1.38;;
33254;SDS011;19623;52.482;9.762;2023-02-28T11:29:28;2.05;;;1.10;;
33254;SDS011;19623;52.482;9.762;2023-02-28T11:32:08;1.92;;;1.23;;
33254;SDS011;19623;52.482;9.762;2023-02-28T11:34:41;2.70;;;1.38;;
33254;SDS011;19623;52.482;9.762;2023-02-28T11:37:14;2.72;;;0.85;;
33254;SDS011;19623;52.482;9.762;2023-02-28T11:39:43;3.47;;;0.85;;
33254;SDS011;19623;52.482;9.762;2023-02-28T11:42:26;1.33;;;0.80;;
33254;SDS011;19623;52.482;9.762;2023-02-28T11:47:48;3.03;;;1.17;;
33254;SDS011;19623;52.482;9.762;2023-02-28T11:56:06;1.13;;;0.90;;
33254;SDS011;19623;52.482;9.762;2023-02-28T12:17:52;1.83;;;1.10;;
33254;SDS011;19623;52.482;9.762;2023-02-28T12:20:33;8.07;;;2.17;;
33254;SDS011;19623;52.482;9.762;2023-02-28T12:23:33;2.53;;;1.50;;
33254;SDS011;19623;52.482;9.762;2023-02-28T12:29:00;2.35;;;1.13;;
33254;SDS011;19623;52.482;9.762;2023-02-28T12:31:53;2.17;;;1.20;;
33254;SDS011;19623;52.482;9.762;2023-02-28T12:34:22;4.13;;;1.50;;
33254;SDS011;19623;52.482;9.762;2023-02-28T12:37:00;1.85;;;1.20;;
33254;SDS011;19623;52.482;9.762;2023-02-28T12:39:33;4.32;;;1.73;;
33254;SDS011;19623;52.482;9.762;2023-02-28T12:42:10;6.18;;;1.30;;
33254;SDS011;19623;52.482;9.762;2023-02-28T12:45:40;2.75;;;1.40;;
33254;SDS011;19623;52.482;9.762;2023-02-28T12:47:52;1.77;;;1.02;;
33254;SDS011;19623;52.482;9.762;2023-02-28T12:50:28;3.10;;;1.10;;
33254;SDS011;19623;52.482;9.762;2023-02-28T12:53:01;3.42;;;1.38;;
33254;SDS011;19623;52.482;9.762;2023-02-28T13:07:12;3.08;;;1.30;;
33254;SDS011;19623;52.482;9.762;2023-02-28T13:10:08;1.80;;;1.00;;
33254;SDS011;19623;52.482;9.762;2023-02-28T13:12:35;3.90;;;1.67;;
33254;SDS011;19623;52.482;9.762;2023-02-28T13:15:04;2.42;;;1.50;;
33254;SDS011;19623;52.482;9.762;2023-02-28T13:17:41;2.25;;;1.40;;
33254;SDS011;19623;52.482;9.762;2023-02-28T13:20:26;2.20;;;1.10;;
33254;SDS011;19623;52.482;9.762;2023-02-28T13:22:55;2.50;;;1.52;;
33254;SDS011;19623;52.482;9.762;2023-02-28T13:27:51;2.20;;;1.40;;
33254;SDS011;19623;52.482;9.762;2023-02-28T13:35:58;5.82;;;1.35;;
33254;SDS011;19623;52.482;9.762;2023-02-28T13:38:32;3.47;;;1.10;;
33254;SDS011;19623;52.482;9.762;2023-02-28T13:46:28;2.17;;;1.17;;
33254;SDS011;19623;52.482;9.762;2023-02-28T13:48:55;2.03;;;1.30;;
33254;SDS011;19623;52.482;9.762;2023-02-28T13:51:40;1.77;;;1.13;;
33254;SDS011;19623;52.482;9.762;2023-02-28T13:54:30;2.53;;;1.20;;
33254;SDS011;19623;52.482;9.762;2023-02-28T13:57:25;4.22;;;1.35;;
33254;SDS011;19623;52.482;9.762;2023-02-28T14:00:02;4.35;;;1.67;;
33254;SDS011;19623;52.482;9.762;2023-02-28T14:02:54;3.88;;;1.30;;
33254;SDS011;19623;52.482;9.762;2023-02-28T14:05:30;5.57;;;1.45;;
33254;SDS011;19623;52.482;9.762;2023-02-28T14:07:59;3.05;;;1.30;;
33254;SDS011;19623;52.482;9.762;2023-02-28T14:10:42;2.60;;;1.35;;
33254;SDS011;19623;52.482;9.762;2023-02-28T14:16:09;3.22;;;1.40;;
33254;SDS011;19623;52.482;9.762;2023-02-28T14:18:40;4.45;;;1.60;;
33254;SDS011;19623;52.482;9.762;2023-02-28T14:21:26;2.80;;;1.50;;
33254;SDS011;19623;52.482;9.762;2023-02-28T14:27:08;4.43;;;1.75;;
33254;SDS011;19623;52.482;9.762;2023-02-28T14:30:37;5.47;;;1.60;;
33254;SDS011;19623;52.482;9.762;2023-02-28T14:32:51;2.53;;;1.45;;
33254;SDS011;19623;52.482;9.762;2023-02-28T14:38:25;3.47;;;1.50;;
33254;SDS011;19623;52.482;9.762;2023-02-28T14:41:03;2.42;;;1.40;;
33254;SDS011;19623;52.482;9.762;2023-02-28T14:43:31;4.57;;;1.42;;
33254;SDS011;19623;52.482;9.762;2023-02-28T14:45:58;1.88;;;1.30;;
33254;SDS011;19623;52.482;9.762;2023-02-28T14:48:26;1.83;;;1.23;;
33254;SDS011;19623;52.482;9.762;2023-02-28T14:50:57;3.38;;;1.55;;
33254;SDS011;19623;52.482;9.762;2023-02-28T14:53:25;3.35;;;1.50;;
33254;SDS011;19623;52.482;9.762;2023-02-28T14:55:53;3.40;;;1.77;;
33254;SDS011;19623;52.482;9.762;2023-02-28T14:58:26;4.82;;;1.50;;
33254;SDS011;19623;52.482;9.762;2023-02-28T15:00:58;4.43;;;1.50;;
33254;SDS011;19623;52.482;9.762;2023-02-28T15:03:35;2.67;;;1.40;;
33254;SDS011;19623;52.482;9.762;2023-02-28T15:06:03;3.13;;;1.48;;
33254;SDS011;19623;52.482;9.762;2023-02-28T15:08:31;3.05;;;1.58;;
33254;SDS011;19623;52.482;9.762;2023-02-28T15:11:01;2.13;;;1.42;;
33254;SDS011;19623;52.482;9.762;2023-02-28T15:13:40;3.88;;;1.60;;
33254;SDS011;19623;52.482;9.762;2023-02-28T15:16:12;2.35;;;1.27;;
33254;SDS011;19623;52.482;9.762;2023-02-28T15:21:25;4.28;;;1.67;;
33254;SDS011;19623;52.482;9.762;2023-02-28T15:24:04;3.13;;;1.52;;
33254;SDS011;19623;52.482;9.762;2023-02-28T15:26:38;2.30;;;1.50;;
33254;SDS011;19623;52.482;9.762;2023-02-28T15:29:07;3.75;;;1.70;;
33254;SDS011;19623;52.482;9.762;2023-02-28T15:31:43;2.70;;;1.52;;
33254;SDS011;19623;52.482;9.762;2023-02-28T15:34:20;3.95;;;1.75;;
33254;SDS011;19623;52.482;9.762;2023-02-28T15:37:26;2.63;;;1.40;;
33254;SDS011;19623;52.482;9.762;2023-02-28T15:40:13;4.50;;;1.85;;
33254;SDS011;19623;52.482;9.762;2023-02-28T15:42:42;4.47;;;1.77;;
33254;SDS011;19623;52.482;9.762;2023-02-28T15:45:26;3.72;;;1.77;;
33254;SDS011;19623;52.482;9.762;2023-02-28T15:50:56;4.47;;;1.77;;
33254;SDS011;19623;52.482;9.762;2023-02-28T15:53:50;5.18;;;1.90;;
33254;SDS011;19623;52.482;9.762;2023-02-28T15:56:27;5.28;;;1.70;;
33254;SDS011;19623;52.482;9.762;2023-02-28T15:59:15;5.50;;;1.92;;
33254;SDS011;19623;52.482;9.762;2023-02-28T16:02:15;3.83;;;1.70;;
33254;SDS011;19623;52.482;9.762;2023-02-28T16:07:33;2.88;;;1.63;;
33254;SDS011;19623;52.482;9.762;2023-02-28T16:10:00;3.10;;;1.58;;
33254;SDS011;19623;52.482;9.762;2023-02-28T16:12:27;5.22;;;1.90;;
33254;SDS011;19623;52.482;9.762;2023-02-28T16:14:55;5.32;;;2.10;;
33254;SDS011;19623;52.482;9.762;2023-02-28T16:17:24;2.55;;;1.60;;
33254;SDS011;19623;52.482;9.762;2023-02-28T16:19:52;3.50;;;1.67;;
33254;SDS011;19623;52.482;9.762;2023-02-28T16:22:18;3.22;;;1.75;;
33254;SDS011;19623;52.482;9.762;2023-02-28T16:24:44;7.28;;;2.85;;
33254;SDS011;19623;52.482;9.762;2023-02-28T16:27:25;5.65;;;2.28;;
33254;SDS011;19623;52.482;9.762;2023-02-28T16:30:02;6.53;;;2.03;;
33254;SDS011;19623;52.482;9.762;2023-02-28T16:32:35;2.05;;;1.42;;
33254;SDS011;19623;52.482;9.762;2023-02-28T16:35:01;4.30;;;1.90;;
33254;SDS011;19623;52.482;9.762;2023-02-28T16:37:27;4.93;;;1.67;;
33254;SDS011;19623;52.482;9.762;2023-02-28T16:39:53;3.45;;;1.88;;
33254;SDS011;19623;52.482;9.762;2023-02-28T16:42:23;7.45;;;2.13;;
33254;SDS011;19623;52.482;9.762;2023-02-28T16:44:52;3.88;;;1.92;;
33254;SDS011;19623;52.482;9.762;2023-02-28T16:47:18;3.20;;;1.85;;
33254;SDS011;19623;52.482;9.762;2023-02-28T16:49:44;2.88;;;1.70;;
33254;SDS011;19623;52.482;9.762;2023-02-28T16:52:12;3.65;;;2.00;;
33254;SDS011;19623;52.482;9.762;2023-02-28T16:54:39;4.57;;;2.20;;
33254;SDS011;19623;52.482;9.762;2023-02-28T16:57:05;3.30;;;1.80;;
33254;SDS011;19623;52.482;9.762;2023-02-28T16:59:40;2.22;;;1.60;;
33254;SDS011;19623;52.482;9.762;2023-02-28T17:02:10;3.65;;;1.90;;
33254;SDS011;19623;52.482;9.762;2023-02-28T17:04:39;5.07;;;2.30;;
33254;SDS011;19623;52.482;9.762;2023-02-28T17:07:04;3.05;;;1.95;;